sensor_id;sensor_type;location;lat;lon;timestamp;P1;durP1;ratioP1;P2;durP2;ratioP2
39890;SDS011;25564;53.312;9.790;2024-02-28T00:00:51;20.87;;;12.50;;
39890;SDS011;25564;53.312;9.790;2024-02-28T00:03:24;22.20;;;11.90;;
39890;SDS011;25564;53.312;9.790;2024-02-28T00:05:55;25.30;;;13.37;;
39890;SDS011;25564;53.312;9.790;2024-02-28T00:08:27;23.23;;;12.87;;
39890;SDS011;25564;53.312;9.790;2024-02-28T00:10:58;24.20;;;12.37;;
39890;SDS011;25564;53.312;9.790;2024-02-28T00:13:30;28.17;;;12.53;;
39890;SDS011;25564;53.312;9.790;2024-02-28T00:16:01;25.93;;;12.90;;
39890;SDS011;25564;53.312;9.790;2024-02-28T00:18:32;24.20;;;12.50;;
39890;SDS011;25564;53.312;9.790;2024-02-28T00:21:04;27.93;;;12.73;;
39890;SDS011;25564;53.312;9.790;2024-02-28T00:23:35;22.73;;;13.57;;
39890;SDS011;25564;53.312;9.790;2024-02-28T00:26:07;24.17;;;12.50;;
39890;SDS011;25564;53.312;9.790;2024-02-28T00:28:38;28.43;;;13.37;;
39890;SDS011;25564;53.312;9.790;2024-02-28T00:31:09;25.50;;;12.03;;
39890;SDS011;25564;53.312;9.790;2024-02-28T00:33:41;29.37;;;13.37;;
39890;SDS011;25564;53.312;9.790;2024-02-28T00:36:12;28.03;;;13.00;;
39890;SDS011;25564;53.312;9.790;2024-02-28T00:38:44;26.63;;;12.50;;
39890;SDS011;25564;53.312;9.790;2024-02-28T00:41:15;27.30;;;11.70;;
39890;SDS011;25564;53.312;9.790;2024-02-28T00:43:47;23.67;;;12.53;;
39890;SDS011;25564;53.312;9.790;2024-02-28T00:46:18;26.70;;;12.20;;
39890;SDS011;25564;53.312;9.790;2024-02-28T00:48:50;27.63;;;12.40;;
39890;SDS011;25564;53.312;9.790;2024-02-28T00:51:21;25.50;;;12.73;;
39890;SDS011;25564;53.312;9.790;2024-02-28T00:53:53;29.83;;;13.10;;
39890;SDS011;25564;53.312;9.790;2024-02-28T00:56:24;26.13;;;13.63;;
39890;SDS011;25564;53.312;9.790;2024-02-28T00:58:56;24.30;;;12.40;;
39890;SDS011;25564;53.312;9.790;2024-02-28T01:01:27;25.77;;;12.77;;
39890;SDS011;25564;53.312;9.790;2024-02-28T01:03:59;25.03;;;12.57;;
39890;SDS011;25564;53.312;9.790;2024-02-28T01:06:30;25.83;;;12.43;;
39890;SDS011;25564;53.312;9.790;2024-02-28T01:09:01;25.90;;;11.97;;
39890;SDS011;25564;53.312;9.790;2024-02-28T01:11:35;24.93;;;12.67;;
39890;SDS011;25564;53.312;9.790;2024-02-28T01:14:06;28.10;;;13.27;;
39890;SDS011;25564;53.312;9.790;2024-02-28T01:16:38;27.43;;;12.47;;
39890;SDS011;25564;53.312;9.790;2024-02-28T01:19:09;23.33;;;11.57;;
39890;SDS011;25564;53.312;9.790;2024-02-28T01:21:40;24.17;;;12.70;;
39890;SDS011;25564;53.312;9.790;2024-02-28T01:24:12;25.87;;;12.63;;
39890;SDS011;25564;53.312;9.790;2024-02-28T01:26:43;23.47;;;12.43;;
39890;SDS011;25564;53.312;9.790;2024-02-28T01:29:15;22.27;;;11.20;;
39890;SDS011;25564;53.312;9.790;2024-02-28T01:31:46;24.23;;;12.07;;
39890;SDS011;25564;53.312;9.790;2024-02-28T01:34:17;22.17;;;10.67;;
39890;SDS011;25564;53.312;9.790;2024-02-28T01:36:49;25.40;;;12.13;;
39890;SDS011;25564;53.312;9.790;2024-02-28T01:39:21;22.17;;;11.10;;
39890;SDS011;25564;53.312;9.790;2024-02-28T01:41:55;21.63;;;11.13;;
39890;SDS011;25564;53.312;9.790;2024-02-28T01:44:28;23.23;;;10.57;;
39890;SDS011;25564;53.312;9.790;2024-02-28T01:47:00;22.50;;;10.67;;
39890;SDS011;25564;53.312;9.790;2024-02-28T01:49:31;23.47;;;12.43;;
39890;SDS011;25564;53.312;9.790;2024-02-28T01:52:03;20.50;;;11.43;;
39890;SDS011;25564;53.312;9.790;2024-02-28T01:54:35;22.87;;;10.97;;
39890;SDS011;25564;53.312;9.790;2024-02-28T01:57:07;23.90;;;11.47;;
39890;SDS011;25564;53.312;9.790;2024-02-28T01:59:38;24.53;;;11.70;;
39890;SDS011;25564;53.312;9.790;2024-02-28T02:02:10;26.13;;;12.57;;
39890;SDS011;25564;53.312;9.790;2024-02-28T02:04:42;23.83;;;11.93;;
39890;SDS011;25564;53.312;9.790;2024-02-28T02:07:13;24.67;;;11.63;;
39890;SDS011;25564;53.312;9.790;2024-02-28T02:09:45;22.30;;;11.17;;
39890;SDS011;25564;53.312;9.790;2024-02-28T02:12:17;22.40;;;12.13;;
39890;SDS011;25564;53.312;9.790;2024-02-28T02:14:49;23.23;;;11.70;;
39890;SDS011;25564;53.312;9.790;2024-02-28T02:17:20;23.33;;;11.10;;
39890;SDS011;25564;53.312;9.790;2024-02-28T02:19:51;25.67;;;11.90;;
39890;SDS011;25564;53.312;9.790;2024-02-28T02:22:23;25.40;;;11.77;;
39890;SDS011;25564;53.312;9.790;2024-02-28T02:24:58;22.90;;;10.95;;
39890;SDS011;25564;53.312;9.790;2024-02-28T02:27:30;22.57;;;11.07;;
39890;SDS011;25564;53.312;9.790;2024-02-28T02:30:02;24.57;;;11.37;;
39890;SDS011;25564;53.312;9.790;2024-02-28T02:32:34;23.50;;;12.23;;
39890;SDS011;25564;53.312;9.790;2024-02-28T02:35:05;25.77;;;12.43;;
39890;SDS011;25564;53.312;9.790;2024-02-28T02:37:37;21.93;;;11.10;;
39890;SDS011;25564;53.312;9.790;2024-02-28T02:40:08;22.33;;;10.87;;
39890;SDS011;25564;53.312;9.790;2024-02-28T02:42:41;21.77;;;11.40;;
39890;SDS011;25564;53.312;9.790;2024-02-28T02:45:13;25.10;;;10.90;;
39890;SDS011;25564;53.312;9.790;2024-02-28T02:47:44;22.73;;;10.87;;
39890;SDS011;25564;53.312;9.790;2024-02-28T02:50:16;24.87;;;11.03;;
39890;SDS011;25564;53.312;9.790;2024-02-28T02:52:47;21.83;;;11.10;;
39890;SDS011;25564;53.312;9.790;2024-02-28T02:55:19;20.20;;;10.13;;
39890;SDS011;25564;53.312;9.790;2024-02-28T02:57:50;23.57;;;12.07;;
39890;SDS011;25564;53.312;9.790;2024-02-28T03:00:23;24.23;;;12.80;;
39890;SDS011;25564;53.312;9.790;2024-02-28T03:02:54;24.87;;;12.37;;
39890;SDS011;25564;53.312;9.790;2024-02-28T03:05:26;26.40;;;12.37;;
39890;SDS011;25564;53.312;9.790;2024-02-28T03:07:57;21.93;;;11.13;;
39890;SDS011;25564;53.312;9.790;2024-02-28T03:10:29;22.20;;;11.73;;
39890;SDS011;25564;53.312;9.790;2024-02-28T03:13:00;23.33;;;10.67;;
39890;SDS011;25564;53.312;9.790;2024-02-28T03:15:33;21.93;;;10.73;;
39890;SDS011;25564;53.312;9.790;2024-02-28T03:18:05;22.87;;;11.17;;
39890;SDS011;25564;53.312;9.790;2024-02-28T03:20:36;20.30;;;10.43;;
39890;SDS011;25564;53.312;9.790;2024-02-28T03:23:09;25.23;;;12.80;;
39890;SDS011;25564;53.312;9.790;2024-02-28T03:25:41;22.60;;;11.43;;
39890;SDS011;25564;53.312;9.790;2024-02-28T03:28:12;25.00;;;11.53;;
39890;SDS011;25564;53.312;9.790;2024-02-28T03:30:43;23.13;;;12.17;;
39890;SDS011;25564;53.312;9.790;2024-02-28T03:33:15;26.23;;;12.67;;
39890;SDS011;25564;53.312;9.790;2024-02-28T03:35:46;21.83;;;9.93;;
39890;SDS011;25564;53.312;9.790;2024-02-28T03:38:18;21.93;;;11.07;;
39890;SDS011;25564;53.312;9.790;2024-02-28T03:40:49;23.40;;;10.77;;
39890;SDS011;25564;53.312;9.790;2024-02-28T03:43:20;22.93;;;10.73;;
39890;SDS011;25564;53.312;9.790;2024-02-28T03:45:53;21.67;;;10.73;;
39890;SDS011;25564;53.312;9.790;2024-02-28T03:48:25;21.90;;;11.60;;
39890;SDS011;25564;53.312;9.790;2024-02-28T03:50:56;25.17;;;11.83;;
39890;SDS011;25564;53.312;9.790;2024-02-28T03:53:27;22.97;;;10.90;;
39890;SDS011;25564;53.312;9.790;2024-02-28T03:55:59;22.20;;;11.57;;
39890;SDS011;25564;53.312;9.790;2024-02-28T03:58:31;22.90;;;11.07;;
39890;SDS011;25564;53.312;9.790;2024-02-28T04:01:03;22.20;;;10.97;;
39890;SDS011;25564;53.312;9.790;2024-02-28T04:03:34;22.37;;;10.27;;
39890;SDS011;25564;53.312;9.790;2024-02-28T04:06:06;22.67;;;10.40;;
39890;SDS011;25564;53.312;9.790;2024-02-28T04:08:38;22.63;;;11.30;;
39890;SDS011;25564;53.312;9.790;2024-02-28T04:11:12;23.83;;;10.50;;
39890;SDS011;25564;53.312;9.790;2024-02-28T04:13:43;18.83;;;10.30;;
39890;SDS011;25564;53.312;9.790;2024-02-28T04:16:15;20.73;;;10.10;;
39890;SDS011;25564;53.312;9.790;2024-02-28T04:18:46;19.83;;;10.27;;
39890;SDS011;25564;53.312;9.790;2024-02-28T04:21:18;18.83;;;9.73;;
39890;SDS011;25564;53.312;9.790;2024-02-28T04:23:49;25.37;;;10.37;;
39890;SDS011;25564;53.312;9.790;2024-02-28T04:26:22;19.17;;;9.90;;
39890;SDS011;25564;53.312;9.790;2024-02-28T04:28:53;19.07;;;9.90;;
39890;SDS011;25564;53.312;9.790;2024-02-28T04:31:25;20.37;;;9.77;;
39890;SDS011;25564;53.312;9.790;2024-02-28T04:33:56;21.13;;;10.23;;
39890;SDS011;25564;53.312;9.790;2024-02-28T04:36:28;19.03;;;10.40;;
39890;SDS011;25564;53.312;9.790;2024-02-28T04:38:59;19.30;;;9.27;;
39890;SDS011;25564;53.312;9.790;2024-02-28T04:41:32;19.23;;;9.20;;
39890;SDS011;25564;53.312;9.790;2024-02-28T04:44:03;18.40;;;8.70;;
39890;SDS011;25564;53.312;9.790;2024-02-28T04:46:35;17.57;;;9.50;;
39890;SDS011;25564;53.312;9.790;2024-02-28T04:49:08;18.50;;;9.10;;
39890;SDS011;25564;53.312;9.790;2024-02-28T04:51:40;19.27;;;9.63;;
39890;SDS011;25564;53.312;9.790;2024-02-28T04:54:11;19.07;;;9.93;;
39890;SDS011;25564;53.312;9.790;2024-02-28T04:56:43;16.63;;;9.20;;
39890;SDS011;25564;53.312;9.790;2024-02-28T04:59:14;20.87;;;9.53;;
39890;SDS011;25564;53.312;9.790;2024-02-28T05:01:46;19.00;;;8.50;;
39890;SDS011;25564;53.312;9.790;2024-02-28T05:04:19;15.20;;;7.70;;
39890;SDS011;25564;53.312;9.790;2024-02-28T05:06:50;15.73;;;8.63;;
39890;SDS011;25564;53.312;9.790;2024-02-28T05:09:22;17.90;;;7.97;;
39890;SDS011;25564;53.312;9.790;2024-02-28T05:11:53;14.27;;;7.73;;
39890;SDS011;25564;53.312;9.790;2024-02-28T05:14:25;16.33;;;8.30;;
39890;SDS011;25564;53.312;9.790;2024-02-28T05:16:56;15.83;;;9.07;;
39890;SDS011;25564;53.312;9.790;2024-02-28T05:19:27;13.67;;;8.20;;
39890;SDS011;25564;53.312;9.790;2024-02-28T05:21:59;16.73;;;8.77;;
39890;SDS011;25564;53.312;9.790;2024-02-28T05:24:32;13.87;;;7.17;;
39890;SDS011;25564;53.312;9.790;2024-02-28T05:27:04;17.60;;;8.37;;
39890;SDS011;25564;53.312;9.790;2024-02-28T05:29:35;16.00;;;7.80;;
39890;SDS011;25564;53.312;9.790;2024-02-28T05:32:07;14.80;;;7.87;;
39890;SDS011;25564;53.312;9.790;2024-02-28T05:34:41;16.30;;;8.10;;
39890;SDS011;25564;53.312;9.790;2024-02-28T05:37:12;15.00;;;7.77;;
39890;SDS011;25564;53.312;9.790;2024-02-28T05:39:44;15.90;;;8.37;;
39890;SDS011;25564;53.312;9.790;2024-02-28T05:42:15;15.67;;;7.73;;
39890;SDS011;25564;53.312;9.790;2024-02-28T05:44:52;13.90;;;7.87;;
39890;SDS011;25564;53.312;9.790;2024-02-28T05:47:24;17.03;;;7.90;;
39890;SDS011;25564;53.312;9.790;2024-02-28T05:49:56;16.67;;;8.53;;
39890;SDS011;25564;53.312;9.790;2024-02-28T05:52:29;16.40;;;7.80;;
39890;SDS011;25564;53.312;9.790;2024-02-28T05:55:00;16.23;;;7.97;;
39890;SDS011;25564;53.312;9.790;2024-02-28T05:57:32;15.00;;;7.70;;
39890;SDS011;25564;53.312;9.790;2024-02-28T06:00:03;15.73;;;8.33;;
39890;SDS011;25564;53.312;9.790;2024-02-28T06:02:40;16.27;;;9.20;;
39890;SDS011;25564;53.312;9.790;2024-02-28T06:05:13;16.23;;;8.13;;
39890;SDS011;25564;53.312;9.790;2024-02-28T06:07:44;14.97;;;7.77;;
39890;SDS011;25564;53.312;9.790;2024-02-28T06:10:16;17.33;;;8.30;;
39890;SDS011;25564;53.312;9.790;2024-02-28T06:12:47;15.47;;;7.90;;
39890;SDS011;25564;53.312;9.790;2024-02-28T06:15:19;16.43;;;8.57;;
39890;SDS011;25564;53.312;9.790;2024-02-28T06:17:50;18.90;;;7.90;;
39890;SDS011;25564;53.312;9.790;2024-02-28T06:20:22;14.93;;;8.07;;
39890;SDS011;25564;53.312;9.790;2024-02-28T06:22:53;18.47;;;7.83;;
39890;SDS011;25564;53.312;9.790;2024-02-28T06:25:24;17.30;;;7.53;;
39890;SDS011;25564;53.312;9.790;2024-02-28T06:27:56;16.47;;;8.20;;
39890;SDS011;25564;53.312;9.790;2024-02-28T06:30:28;16.83;;;8.80;;
39890;SDS011;25564;53.312;9.790;2024-02-28T06:32:59;16.93;;;8.23;;
39890;SDS011;25564;53.312;9.790;2024-02-28T06:35:31;18.27;;;8.70;;
39890;SDS011;25564;53.312;9.790;2024-02-28T06:38:02;16.23;;;8.00;;
39890;SDS011;25564;53.312;9.790;2024-02-28T06:40:34;15.33;;;7.93;;
39890;SDS011;25564;53.312;9.790;2024-02-28T06:43:05;18.20;;;8.97;;
39890;SDS011;25564;53.312;9.790;2024-02-28T06:45:37;20.43;;;8.63;;
39890;SDS011;25564;53.312;9.790;2024-02-28T06:48:09;16.27;;;7.97;;
39890;SDS011;25564;53.312;9.790;2024-02-28T06:50:40;16.97;;;8.13;;
39890;SDS011;25564;53.312;9.790;2024-02-28T06:53:12;22.87;;;9.77;;
39890;SDS011;25564;53.312;9.790;2024-02-28T06:55:44;21.47;;;9.50;;
39890;SDS011;25564;53.312;9.790;2024-02-28T06:58:16;20.07;;;9.07;;
39890;SDS011;25564;53.312;9.790;2024-02-28T07:00:48;15.67;;;8.57;;
39890;SDS011;25564;53.312;9.790;2024-02-28T07:03:24;18.90;;;9.33;;
39890;SDS011;25564;53.312;9.790;2024-02-28T07:05:55;16.57;;;8.67;;
39890;SDS011;25564;53.312;9.790;2024-02-28T07:08:27;18.47;;;9.10;;
39890;SDS011;25564;53.312;9.790;2024-02-28T07:10:58;20.00;;;9.50;;
39890;SDS011;25564;53.312;9.790;2024-02-28T07:13:30;19.67;;;9.27;;
39890;SDS011;25564;53.312;9.790;2024-02-28T07:16:01;18.50;;;9.63;;
39890;SDS011;25564;53.312;9.790;2024-02-28T07:18:33;20.63;;;10.27;;
39890;SDS011;25564;53.312;9.790;2024-02-28T07:21:05;21.30;;;10.00;;
39890;SDS011;25564;53.312;9.790;2024-02-28T07:23:41;22.50;;;9.90;;
39890;SDS011;25564;53.312;9.790;2024-02-28T07:26:15;23.27;;;11.27;;
39890;SDS011;25564;53.312;9.790;2024-02-28T07:28:57;23.73;;;10.30;;
39890;SDS011;25564;53.312;9.790;2024-02-28T07:31:29;22.53;;;10.10;;
39890;SDS011;25564;53.312;9.790;2024-02-28T07:34:00;22.27;;;10.83;;
39890;SDS011;25564;53.312;9.790;2024-02-28T07:36:31;24.97;;;11.27;;
39890;SDS011;25564;53.312;9.790;2024-02-28T07:39:03;22.17;;;10.50;;
39890;SDS011;25564;53.312;9.790;2024-02-28T07:41:34;26.00;;;11.03;;
39890;SDS011;25564;53.312;9.790;2024-02-28T07:44:07;26.53;;;12.00;;
39890;SDS011;25564;53.312;9.790;2024-02-28T07:46:41;28.93;;;12.63;;
39890;SDS011;25564;53.312;9.790;2024-02-28T07:49:13;27.50;;;13.80;;
39890;SDS011;25564;53.312;9.790;2024-02-28T07:51:44;28.20;;;13.50;;
39890;SDS011;25564;53.312;9.790;2024-02-28T07:54:16;29.20;;;13.63;;
39890;SDS011;25564;53.312;9.790;2024-02-28T07:56:48;29.47;;;14.57;;
39890;SDS011;25564;53.312;9.790;2024-02-28T07:59:19;26.03;;;14.33;;
39890;SDS011;25564;53.312;9.790;2024-02-28T08:01:51;30.37;;;14.50;;
39890;SDS011;25564;53.312;9.790;2024-02-28T08:04:23;32.63;;;14.20;;
39890;SDS011;25564;53.312;9.790;2024-02-28T08:06:55;33.17;;;13.43;;
39890;SDS011;25564;53.312;9.790;2024-02-28T08:09:28;30.73;;;14.47;;
39890;SDS011;25564;53.312;9.790;2024-02-28T08:11:59;35.43;;;15.13;;
39890;SDS011;25564;53.312;9.790;2024-02-28T08:14:30;29.53;;;15.17;;
39890;SDS011;25564;53.312;9.790;2024-02-28T08:17:02;30.80;;;15.50;;
39890;SDS011;25564;53.312;9.790;2024-02-28T08:19:33;30.63;;;15.43;;
39890;SDS011;25564;53.312;9.790;2024-02-28T08:22:06;31.60;;;15.60;;
39890;SDS011;25564;53.312;9.790;2024-02-28T08:24:37;30.10;;;14.60;;
39890;SDS011;25564;53.312;9.790;2024-02-28T08:27:09;29.67;;;14.63;;
39890;SDS011;25564;53.312;9.790;2024-02-28T08:29:40;30.53;;;14.50;;
39890;SDS011;25564;53.312;9.790;2024-02-28T08:32:14;36.50;;;15.03;;
39890;SDS011;25564;53.312;9.790;2024-02-28T08:34:46;29.67;;;15.03;;
39890;SDS011;25564;53.312;9.790;2024-02-28T08:37:17;35.47;;;17.87;;
39890;SDS011;25564;53.312;9.790;2024-02-28T08:39:48;33.57;;;16.87;;
39890;SDS011;25564;53.312;9.790;2024-02-28T08:42:20;31.80;;;14.43;;
39890;SDS011;25564;53.312;9.790;2024-02-28T08:44:52;35.03;;;14.30;;
39890;SDS011;25564;53.312;9.790;2024-02-28T08:47:26;36.33;;;17.07;;
39890;SDS011;25564;53.312;9.790;2024-02-28T08:49:58;34.67;;;16.50;;
39890;SDS011;25564;53.312;9.790;2024-02-28T08:52:29;32.13;;;15.97;;
39890;SDS011;25564;53.312;9.790;2024-02-28T08:55:00;35.50;;;18.70;;
39890;SDS011;25564;53.312;9.790;2024-02-28T08:57:32;29.70;;;15.53;;
39890;SDS011;25564;53.312;9.790;2024-02-28T09:00:05;32.17;;;16.10;;
39890;SDS011;25564;53.312;9.790;2024-02-28T09:02:40;30.30;;;16.23;;
39890;SDS011;25564;53.312;9.790;2024-02-28T09:05:11;34.47;;;16.07;;
39890;SDS011;25564;53.312;9.790;2024-02-28T09:07:42;33.23;;;16.40;;
39890;SDS011;25564;53.312;9.790;2024-02-28T09:10:14;36.87;;;15.90;;
39890;SDS011;25564;53.312;9.790;2024-02-28T09:12:45;33.43;;;16.10;;
39890;SDS011;25564;53.312;9.790;2024-02-28T09:15:17;33.37;;;16.93;;
39890;SDS011;25564;53.312;9.790;2024-02-28T09:17:49;31.90;;;16.23;;
39890;SDS011;25564;53.312;9.790;2024-02-28T09:20:20;36.33;;;16.97;;
39890;SDS011;25564;53.312;9.790;2024-02-28T09:22:52;35.57;;;16.40;;
39890;SDS011;25564;53.312;9.790;2024-02-28T09:25:23;31.37;;;16.43;;
39890;SDS011;25564;53.312;9.790;2024-02-28T09:27:59;31.45;;;15.80;;
39890;SDS011;25564;53.312;9.790;2024-02-28T09:30:32;33.83;;;15.53;;
39890;SDS011;25564;53.312;9.790;2024-02-28T09:33:16;32.13;;;15.63;;
39890;SDS011;25564;53.312;9.790;2024-02-28T09:35:50;35.20;;;16.43;;
39890;SDS011;25564;53.312;9.790;2024-02-28T09:38:22;31.47;;;14.93;;
39890;SDS011;25564;53.312;9.790;2024-02-28T09:40:54;33.17;;;15.93;;
39890;SDS011;25564;53.312;9.790;2024-02-28T09:43:29;29.20;;;14.50;;
39890;SDS011;25564;53.312;9.790;2024-02-28T09:46:05;35.87;;;16.57;;
39890;SDS011;25564;53.312;9.790;2024-02-28T09:48:38;28.27;;;14.57;;
39890;SDS011;25564;53.312;9.790;2024-02-28T09:51:11;34.60;;;16.70;;
39890;SDS011;25564;53.312;9.790;2024-02-28T09:53:44;28.73;;;15.07;;
39890;SDS011;25564;53.312;9.790;2024-02-28T09:56:16;27.97;;;13.73;;
39890;SDS011;25564;53.312;9.790;2024-02-28T09:58:47;26.27;;;13.93;;
39890;SDS011;25564;53.312;9.790;2024-02-28T10:01:21;27.10;;;14.23;;
39890;SDS011;25564;53.312;9.790;2024-02-28T10:03:54;27.67;;;14.17;;
39890;SDS011;25564;53.312;9.790;2024-02-28T10:06:27;25.93;;;12.07;;
39890;SDS011;25564;53.312;9.790;2024-02-28T10:08:59;26.33;;;14.63;;
39890;SDS011;25564;53.312;9.790;2024-02-28T10:11:30;23.83;;;13.00;;
39890;SDS011;25564;53.312;9.790;2024-02-28T10:14:01;29.23;;;15.43;;
39890;SDS011;25564;53.312;9.790;2024-02-28T10:16:33;27.93;;;13.90;;
39890;SDS011;25564;53.312;9.790;2024-02-28T10:19:05;29.47;;;15.07;;
39890;SDS011;25564;53.312;9.790;2024-02-28T10:21:37;25.93;;;13.47;;
39890;SDS011;25564;53.312;9.790;2024-02-28T10:24:10;26.93;;;14.27;;
39890;SDS011;25564;53.312;9.790;2024-02-28T10:26:44;26.80;;;15.05;;
39890;SDS011;25564;53.312;9.790;2024-02-28T10:29:17;27.60;;;15.43;;
39890;SDS011;25564;53.312;9.790;2024-02-28T10:31:48;28.67;;;15.57;;
39890;SDS011;25564;53.312;9.790;2024-02-28T10:34:20;28.37;;;13.77;;
39890;SDS011;25564;53.312;9.790;2024-02-28T10:36:51;29.77;;;15.93;;
39890;SDS011;25564;53.312;9.790;2024-02-28T10:39:23;25.60;;;14.10;;
39890;SDS011;25564;53.312;9.790;2024-02-28T10:41:55;28.70;;;14.37;;
39890;SDS011;25564;53.312;9.790;2024-02-28T10:44:29;27.53;;;14.37;;
39890;SDS011;25564;53.312;9.790;2024-02-28T10:47:02;25.27;;;13.57;;
39890;SDS011;25564;53.312;9.790;2024-02-28T10:49:33;29.70;;;15.03;;
39890;SDS011;25564;53.312;9.790;2024-02-28T10:52:05;28.90;;;15.20;;
39890;SDS011;25564;53.312;9.790;2024-02-28T10:54:39;27.17;;;14.17;;
39890;SDS011;25564;53.312;9.790;2024-02-28T10:57:15;28.15;;;15.30;;
39890;SDS011;25564;53.312;9.790;2024-02-28T10:59:48;28.27;;;15.30;;
39890;SDS011;25564;53.312;9.790;2024-02-28T11:02:20;26.17;;;14.20;;
39890;SDS011;25564;53.312;9.790;2024-02-28T11:04:52;24.17;;;13.13;;
39890;SDS011;25564;53.312;9.790;2024-02-28T11:07:24;23.80;;;12.57;;
39890;SDS011;25564;53.312;9.790;2024-02-28T11:09:55;28.77;;;14.20;;
39890;SDS011;25564;53.312;9.790;2024-02-28T11:12:27;24.70;;;13.33;;
39890;SDS011;25564;53.312;9.790;2024-02-28T11:15:01;26.57;;;13.20;;
39890;SDS011;25564;53.312;9.790;2024-02-28T11:17:33;23.80;;;12.80;;
39890;SDS011;25564;53.312;9.790;2024-02-28T11:20:11;25.80;;;13.90;;
39890;SDS011;25564;53.312;9.790;2024-02-28T11:22:43;24.17;;;12.80;;
39890;SDS011;25564;53.312;9.790;2024-02-28T11:25:15;23.90;;;14.03;;
39890;SDS011;25564;53.312;9.790;2024-02-28T11:27:47;23.57;;;11.93;;
39890;SDS011;25564;53.312;9.790;2024-02-28T11:30:19;26.87;;;13.60;;
39890;SDS011;25564;53.312;9.790;2024-02-28T11:32:54;22.33;;;12.43;;
39890;SDS011;25564;53.312;9.790;2024-02-28T11:35:29;23.13;;;12.77;;
39890;SDS011;25564;53.312;9.790;2024-02-28T11:38:00;23.87;;;12.33;;
39890;SDS011;25564;53.312;9.790;2024-02-28T11:40:32;22.83;;;12.40;;
39890;SDS011;25564;53.312;9.790;2024-02-28T11:43:03;24.17;;;11.13;;
39890;SDS011;25564;53.312;9.790;2024-02-28T11:45:39;20.80;;;12.47;;
39890;SDS011;25564;53.312;9.790;2024-02-28T11:48:12;26.37;;;13.17;;
39890;SDS011;25564;53.312;9.790;2024-02-28T11:50:47;22.10;;;11.27;;
39890;SDS011;25564;53.312;9.790;2024-02-28T11:53:18;23.77;;;12.37;;
39890;SDS011;25564;53.312;9.790;2024-02-28T11:55:49;20.90;;;11.53;;
39890;SDS011;25564;53.312;9.790;2024-02-28T11:58:22;21.77;;;11.93;;
39890;SDS011;25564;53.312;9.790;2024-02-28T12:00:53;25.67;;;11.70;;
39890;SDS011;25564;53.312;9.790;2024-02-28T12:03:25;20.10;;;11.40;;
39890;SDS011;25564;53.312;9.790;2024-02-28T12:05:58;24.80;;;12.27;;
39890;SDS011;25564;53.312;9.790;2024-02-28T12:08:30;21.27;;;11.73;;
39890;SDS011;25564;53.312;9.790;2024-02-28T12:11:08;21.07;;;11.40;;
39890;SDS011;25564;53.312;9.790;2024-02-28T12:13:41;20.67;;;12.23;;
39890;SDS011;25564;53.312;9.790;2024-02-28T12:16:12;21.50;;;11.73;;
39890;SDS011;25564;53.312;9.790;2024-02-28T12:18:44;24.27;;;13.23;;
39890;SDS011;25564;53.312;9.790;2024-02-28T12:21:19;21.80;;;11.47;;
39890;SDS011;25564;53.312;9.790;2024-02-28T12:23:51;21.33;;;12.10;;
39890;SDS011;25564;53.312;9.790;2024-02-28T12:26:22;22.43;;;12.33;;
39890;SDS011;25564;53.312;9.790;2024-02-28T12:28:53;25.83;;;13.27;;
39890;SDS011;25564;53.312;9.790;2024-02-28T12:31:25;26.57;;;13.13;;
39890;SDS011;25564;53.312;9.790;2024-02-28T12:33:56;20.90;;;11.20;;
39890;SDS011;25564;53.312;9.790;2024-02-28T12:36:28;20.37;;;10.97;;
39890;SDS011;25564;53.312;9.790;2024-02-28T12:38:59;20.63;;;11.03;;
39890;SDS011;25564;53.312;9.790;2024-02-28T12:41:31;18.97;;;10.40;;
39890;SDS011;25564;53.312;9.790;2024-02-28T12:44:02;19.90;;;10.37;;
39890;SDS011;25564;53.312;9.790;2024-02-28T12:46:34;23.87;;;11.63;;
39890;SDS011;25564;53.312;9.790;2024-02-28T12:49:06;19.10;;;10.97;;
39890;SDS011;25564;53.312;9.790;2024-02-28T12:51:41;19.40;;;10.63;;
39890;SDS011;25564;53.312;9.790;2024-02-28T12:54:15;19.10;;;9.87;;
39890;SDS011;25564;53.312;9.790;2024-02-28T12:56:46;19.57;;;11.00;;
39890;SDS011;25564;53.312;9.790;2024-02-28T12:59:18;19.87;;;9.67;;
39890;SDS011;25564;53.312;9.790;2024-02-28T13:01:50;20.27;;;10.13;;
39890;SDS011;25564;53.312;9.790;2024-02-28T13:04:22;21.60;;;11.07;;
39890;SDS011;25564;53.312;9.790;2024-02-28T13:06:57;21.52;;;10.77;;
39890;SDS011;25564;53.312;9.790;2024-02-28T13:09:29;22.17;;;11.07;;
39890;SDS011;25564;53.312;9.790;2024-02-28T13:12:00;19.60;;;10.47;;
39890;SDS011;25564;53.312;9.790;2024-02-28T13:14:33;20.87;;;11.10;;
39890;SDS011;25564;53.312;9.790;2024-02-28T13:17:04;19.03;;;11.10;;
39890;SDS011;25564;53.312;9.790;2024-02-28T13:19:36;21.07;;;10.07;;
39890;SDS011;25564;53.312;9.790;2024-02-28T13:22:08;19.80;;;10.90;;
39890;SDS011;25564;53.312;9.790;2024-02-28T13:24:39;21.70;;;10.63;;
39890;SDS011;25564;53.312;9.790;2024-02-28T13:27:11;20.87;;;11.20;;
39890;SDS011;25564;53.312;9.790;2024-02-28T13:29:43;21.90;;;11.53;;
39890;SDS011;25564;53.312;9.790;2024-02-28T13:32:14;18.63;;;10.50;;
39890;SDS011;25564;53.312;9.790;2024-02-28T13:34:46;17.87;;;8.10;;
39890;SDS011;25564;53.312;9.790;2024-02-28T13:37:20;19.37;;;9.70;;
39890;SDS011;25564;53.312;9.790;2024-02-28T13:39:51;18.57;;;9.70;;
39890;SDS011;25564;53.312;9.790;2024-02-28T13:42:23;19.40;;;9.83;;
39890;SDS011;25564;53.312;9.790;2024-02-28T13:44:55;21.63;;;10.67;;
39890;SDS011;25564;53.312;9.790;2024-02-28T13:47:27;19.20;;;10.30;;
39890;SDS011;25564;53.312;9.790;2024-02-28T13:49:58;22.03;;;10.43;;
39890;SDS011;25564;53.312;9.790;2024-02-28T13:52:30;21.43;;;9.97;;
39890;SDS011;25564;53.312;9.790;2024-02-28T13:55:01;21.80;;;10.70;;
39890;SDS011;25564;53.312;9.790;2024-02-28T13:57:33;19.57;;;9.77;;
39890;SDS011;25564;53.312;9.790;2024-02-28T14:00:06;15.87;;;8.00;;
39890;SDS011;25564;53.312;9.790;2024-02-28T14:02:42;17.30;;;8.68;;
39890;SDS011;25564;53.312;9.790;2024-02-28T14:05:13;16.00;;;8.43;;
39890;SDS011;25564;53.312;9.790;2024-02-28T14:07:44;15.60;;;8.30;;
39890;SDS011;25564;53.312;9.790;2024-02-28T14:10:16;18.67;;;9.07;;
39890;SDS011;25564;53.312;9.790;2024-02-28T14:12:47;23.07;;;11.53;;
39890;SDS011;25564;53.312;9.790;2024-02-28T14:15:22;21.67;;;9.50;;
39890;SDS011;25564;53.312;9.790;2024-02-28T14:17:54;16.63;;;8.68;;
39890;SDS011;25564;53.312;9.790;2024-02-28T14:20:26;23.33;;;10.53;;
39890;SDS011;25564;53.312;9.790;2024-02-28T14:22:58;21.37;;;9.67;;
39890;SDS011;25564;53.312;9.790;2024-02-28T14:25:30;20.67;;;10.03;;
39890;SDS011;25564;53.312;9.790;2024-02-28T14:28:02;20.13;;;9.30;;
39890;SDS011;25564;53.312;9.790;2024-02-28T14:30:33;18.83;;;9.27;;
39890;SDS011;25564;53.312;9.790;2024-02-28T14:33:05;21.17;;;9.00;;
39890;SDS011;25564;53.312;9.790;2024-02-28T14:35:39;17.90;;;8.07;;
39890;SDS011;25564;53.312;9.790;2024-02-28T14:38:12;20.13;;;9.67;;
39890;SDS011;25564;53.312;9.790;2024-02-28T14:40:43;18.43;;;8.33;;
39890;SDS011;25564;53.312;9.790;2024-02-28T14:43:15;21.27;;;9.63;;
39890;SDS011;25564;53.312;9.790;2024-02-28T14:45:47;26.90;;;10.73;;
39890;SDS011;25564;53.312;9.790;2024-02-28T14:48:18;22.63;;;10.10;;
39890;SDS011;25564;53.312;9.790;2024-02-28T14:50:51;25.90;;;11.87;;
39890;SDS011;25564;53.312;9.790;2024-02-28T14:53:24;20.00;;;10.73;;